sensor_id;sensor_type;location;lat;lon;timestamp;P1;durP1;ratioP1;P2;durP2;ratioP2
35644;SDS011;21764;52.042;6.830;2024-03-08T00:04:44;50.60;;;24.92;;
35644;SDS011;21764;52.042;6.830;2024-03-08T00:09:45;31.95;;;14.52;;
35644;SDS011;21764;52.042;6.830;2024-03-08T00:14:46;55.35;;;28.05;;
35644;SDS011;21764;52.042;6.830;2024-03-08T00:19:47;42.80;;;22.75;;
35644;SDS011;21764;52.042;6.830;2024-03-08T00:24:48;50.47;;;23.20;;
35644;SDS011;21764;52.042;6.830;2024-03-08T00:29:51;46.65;;;24.90;;
35644;SDS011;21764;52.042;6.830;2024-03-08T00:34:53;45.97;;;24.77;;
35644;SDS011;21764;52.042;6.830;2024-03-08T00:44:58;54.35;;;27.27;;
35644;SDS011;21764;52.042;6.830;2024-03-08T00:49:59;53.63;;;28.77;;
35644;SDS011;21764;52.042;6.830;2024-03-08T00:55:04;52.97;;;27.02;;
35644;SDS011;21764;52.042;6.830;2024-03-08T01:00:05;52.47;;;26.17;;
35644;SDS011;21764;52.042;6.830;2024-03-08T01:05:12;46.30;;;22.05;;
35644;SDS011;21764;52.042;6.830;2024-03-08T01:10:13;54.85;;;28.85;;
35644;SDS011;21764;52.042;6.830;2024-03-08T01:15:14;43.25;;;21.17;;
35644;SDS011;21764;52.042;6.830;2024-03-08T01:20:15;63.85;;;28.40;;
35644;SDS011;21764;52.042;6.830;2024-03-08T01:25:16;49.45;;;27.35;;
35644;SDS011;21764;52.042;6.830;2024-03-08T01:30:17;50.70;;;22.60;;
35644;SDS011;21764;52.042;6.830;2024-03-08T01:35:18;31.17;;;12.98;;
35644;SDS011;21764;52.042;6.830;2024-03-08T01:40:20;52.08;;;26.52;;
35644;SDS011;21764;52.042;6.830;2024-03-08T01:45:21;60.42;;;29.05;;
35644;SDS011;21764;52.042;6.830;2024-03-08T01:50:22;46.25;;;18.20;;
35644;SDS011;21764;52.042;6.830;2024-03-08T01:55:24;51.05;;;28.55;;
35644;SDS011;21764;52.042;6.830;2024-03-08T02:00:25;52.13;;;24.33;;
35644;SDS011;21764;52.042;6.830;2024-03-08T02:05:30;62.33;;;28.10;;
35644;SDS011;21764;52.042;6.830;2024-03-08T02:10:31;52.00;;;22.17;;
35644;SDS011;21764;52.042;6.830;2024-03-08T02:20:53;29.83;;;17.02;;
35644;SDS011;21764;52.042;6.830;2024-03-08T02:25:54;50.47;;;25.92;;
35644;SDS011;21764;52.042;6.830;2024-03-08T02:30:56;56.55;;;27.02;;
35644;SDS011;21764;52.042;6.830;2024-03-08T02:35:57;55.60;;;27.83;;
35644;SDS011;21764;52.042;6.830;2024-03-08T02:40:58;62.55;;;30.20;;
35644;SDS011;21764;52.042;6.830;2024-03-08T02:45:59;60.03;;;31.98;;
35644;SDS011;21764;52.042;6.830;2024-03-08T02:51:00;37.03;;;18.75;;
35644;SDS011;21764;52.042;6.830;2024-03-08T02:56:02;57.33;;;27.45;;
35644;SDS011;21764;52.042;6.830;2024-03-08T03:01:03;58.22;;;28.58;;
35644;SDS011;21764;52.042;6.830;2024-03-08T03:06:04;63.33;;;31.15;;
35644;SDS011;21764;52.042;6.830;2024-03-08T03:11:07;60.13;;;31.67;;
35644;SDS011;21764;52.042;6.830;2024-03-08T03:16:08;54.30;;;27.33;;
35644;SDS011;21764;52.042;6.830;2024-03-08T03:21:10;64.30;;;32.10;;
35644;SDS011;21764;52.042;6.830;2024-03-08T03:26:12;67.30;;;28.52;;
35644;SDS011;21764;52.042;6.830;2024-03-08T03:31:15;46.25;;;21.92;;
35644;SDS011;21764;52.042;6.830;2024-03-08T03:36:18;50.13;;;26.50;;
35644;SDS011;21764;52.042;6.830;2024-03-08T03:41:20;67.35;;;33.78;;
35644;SDS011;21764;52.042;6.830;2024-03-08T03:46:21;59.70;;;30.48;;
35644;SDS011;21764;52.042;6.830;2024-03-08T03:51:22;66.72;;;32.90;;
35644;SDS011;21764;52.042;6.830;2024-03-08T03:56:26;69.57;;;33.53;;
35644;SDS011;21764;52.042;6.830;2024-03-08T04:01:27;48.15;;;22.63;;
35644;SDS011;21764;52.042;6.830;2024-03-08T04:06:29;52.97;;;23.00;;
35644;SDS011;21764;52.042;6.830;2024-03-08T04:11:30;54.00;;;24.70;;
35644;SDS011;21764;52.042;6.830;2024-03-08T04:16:31;66.43;;;31.63;;
35644;SDS011;21764;52.042;6.830;2024-03-08T04:21:32;62.13;;;31.73;;
35644;SDS011;21764;52.042;6.830;2024-03-08T04:26:33;64.80;;;30.40;;
35644;SDS011;21764;52.042;6.830;2024-03-08T04:31:34;60.53;;;29.42;;
35644;SDS011;21764;52.042;6.830;2024-03-08T04:36:35;60.95;;;31.92;;
35644;SDS011;21764;52.042;6.830;2024-03-08T04:41:36;60.95;;;32.03;;
35644;SDS011;21764;52.042;6.830;2024-03-08T04:46:38;67.07;;;32.58;;
35644;SDS011;21764;52.042;6.830;2024-03-08T04:51:39;71.78;;;36.88;;
35644;SDS011;21764;52.042;6.830;2024-03-08T04:56:40;60.42;;;28.95;;
35644;SDS011;21764;52.042;6.830;2024-03-08T05:01:41;65.95;;;34.85;;
35644;SDS011;21764;52.042;6.830;2024-03-08T05:06:43;64.75;;;30.35;;
35644;SDS011;21764;52.042;6.830;2024-03-08T05:11:44;79.75;;;38.35;;
35644;SDS011;21764;52.042;6.830;2024-03-08T05:16:46;77.95;;;39.30;;
35644;SDS011;21764;52.042;6.830;2024-03-08T05:21:50;77.15;;;37.25;;
35644;SDS011;21764;52.042;6.830;2024-03-08T05:26:51;75.65;;;37.55;;
35644;SDS011;21764;52.042;6.830;2024-03-08T05:31:52;58.30;;;27.20;;
35644;SDS011;21764;52.042;6.830;2024-03-08T05:36:53;78.88;;;37.03;;
35644;SDS011;21764;52.042;6.830;2024-03-08T05:41:54;78.50;;;36.78;;
35644;SDS011;21764;52.042;6.830;2024-03-08T05:46:56;75.47;;;37.08;;
35644;SDS011;21764;52.042;6.830;2024-03-08T05:51:57;62.50;;;29.08;;
35644;SDS011;21764;52.042;6.830;2024-03-08T05:56:59;43.33;;;20.45;;
35644;SDS011;21764;52.042;6.830;2024-03-08T06:02:00;77.63;;;33.50;;
35644;SDS011;21764;52.042;6.830;2024-03-08T06:07:03;63.30;;;28.23;;
35644;SDS011;21764;52.042;6.830;2024-03-08T06:12:05;75.68;;;34.75;;
35644;SDS011;21764;52.042;6.830;2024-03-08T06:17:06;77.25;;;36.50;;
35644;SDS011;21764;52.042;6.830;2024-03-08T06:22:07;71.20;;;35.97;;
35644;SDS011;21764;52.042;6.830;2024-03-08T06:27:09;51.47;;;26.23;;
35644;SDS011;21764;52.042;6.830;2024-03-08T06:32:10;76.05;;;39.05;;
35644;SDS011;21764;52.042;6.830;2024-03-08T06:37:11;45.95;;;23.77;;
35644;SDS011;21764;52.042;6.830;2024-03-08T06:42:14;72.00;;;37.00;;
35644;SDS011;21764;52.042;6.830;2024-03-08T06:47:15;63.15;;;32.85;;
35644;SDS011;21764;52.042;6.830;2024-03-08T06:52:17;59.92;;;31.55;;
35644;SDS011;21764;52.042;6.830;2024-03-08T06:57:18;63.45;;;31.73;;
35644;SDS011;21764;52.042;6.830;2024-03-08T07:02:22;59.10;;;32.73;;
35644;SDS011;21764;52.042;6.830;2024-03-08T07:07:24;57.47;;;28.00;;
35644;SDS011;21764;52.042;6.830;2024-03-08T07:12:26;45.67;;;25.45;;
35644;SDS011;21764;52.042;6.830;2024-03-08T07:17:27;59.47;;;35.15;;
35644;SDS011;21764;52.042;6.830;2024-03-08T07:22:28;49.92;;;28.95;;
35644;SDS011;21764;52.042;6.830;2024-03-08T07:27:29;55.22;;;32.38;;
35644;SDS011;21764;52.042;6.830;2024-03-08T07:32:30;51.95;;;30.45;;
35644;SDS011;21764;52.042;6.830;2024-03-08T07:37:31;47.38;;;29.63;;
35644;SDS011;21764;52.042;6.830;2024-03-08T07:42:32;44.60;;;23.70;;
35644;SDS011;21764;52.042;6.830;2024-03-08T07:47:33;52.40;;;33.13;;
35644;SDS011;21764;52.042;6.830;2024-03-08T07:52:36;50.53;;;30.20;;
35644;SDS011;21764;52.042;6.830;2024-03-08T07:57:37;51.40;;;32.47;;
35644;SDS011;21764;52.042;6.830;2024-03-08T08:02:38;51.85;;;30.83;;
35644;SDS011;21764;52.042;6.830;2024-03-08T08:07:39;54.38;;;29.48;;
35644;SDS011;21764;52.042;6.830;2024-03-08T08:12:43;48.25;;;28.92;;
35644;SDS011;21764;52.042;6.830;2024-03-08T08:17:45;41.97;;;24.65;;
35644;SDS011;21764;52.042;6.830;2024-03-08T08:22:47;49.92;;;31.23;;
35644;SDS011;21764;52.042;6.830;2024-03-08T08:27:48;45.13;;;25.95;;
35644;SDS011;21764;52.042;6.830;2024-03-08T08:32:49;44.60;;;27.38;;
35644;SDS011;21764;52.042;6.830;2024-03-08T08:37:50;41.30;;;25.63;;
35644;SDS011;21764;52.042;6.830;2024-03-08T08:42:51;46.13;;;23.27;;
35644;SDS011;21764;52.042;6.830;2024-03-08T08:47:52;44.75;;;25.65;;
35644;SDS011;21764;52.042;6.830;2024-03-08T08:52:54;39.35;;;25.50;;
35644;SDS011;21764;52.042;6.830;2024-03-08T08:57:55;42.33;;;21.77;;
35644;SDS011;21764;52.042;6.830;2024-03-08T09:02:56;44.28;;;27.60;;
35644;SDS011;21764;52.042;6.830;2024-03-08T09:07:58;46.78;;;27.65;;
35644;SDS011;21764;52.042;6.830;2024-03-08T09:13:00;47.35;;;30.15;;
35644;SDS011;21764;52.042;6.830;2024-03-08T09:18:04;42.67;;;27.20;;
35644;SDS011;21764;52.042;6.830;2024-03-08T09:23:06;49.30;;;29.60;;
35644;SDS011;21764;52.042;6.830;2024-03-08T09:28:08;46.33;;;26.27;;
35644;SDS011;21764;52.042;6.830;2024-03-08T09:33:11;49.85;;;30.33;;
35644;SDS011;21764;52.042;6.830;2024-03-08T09:38:13;42.13;;;27.45;;
35644;SDS011;21764;52.042;6.830;2024-03-08T09:43:14;44.10;;;28.27;;
35644;SDS011;21764;52.042;6.830;2024-03-08T09:48:16;46.40;;;30.10;;
35644;SDS011;21764;52.042;6.830;2024-03-08T09:53:19;48.78;;;29.20;;
35644;SDS011;21764;52.042;6.830;2024-03-08T09:58:22;43.65;;;28.75;;
35644;SDS011;21764;52.042;6.830;2024-03-08T10:03:32;39.72;;;24.38;;
35644;SDS011;21764;52.042;6.830;2024-03-08T10:08:34;40.58;;;28.00;;
35644;SDS011;21764;52.042;6.830;2024-03-08T10:13:36;40.38;;;26.45;;
35644;SDS011;21764;52.042;6.830;2024-03-08T10:18:37;40.83;;;23.02;;
35644;SDS011;21764;52.042;6.830;2024-03-08T10:23:39;40.95;;;24.55;;
35644;SDS011;21764;52.042;6.830;2024-03-08T10:28:42;44.05;;;28.02;;
35644;SDS011;21764;52.042;6.830;2024-03-08T10:33:43;30.65;;;17.83;;
35644;SDS011;21764;52.042;6.830;2024-03-08T10:38:44;43.95;;;27.45;;
35644;SDS011;21764;52.042;6.830;2024-03-08T10:48:55;44.67;;;25.80;;
35644;SDS011;21764;52.042;6.830;2024-03-08T10:54:01;37.58;;;21.67;;
35644;SDS011;21764;52.042;6.830;2024-03-08T10:59:03;44.08;;;25.85;;
35644;SDS011;21764;52.042;6.830;2024-03-08T11:04:04;46.28;;;27.92;;
35644;SDS011;21764;52.042;6.830;2024-03-08T11:09:11;43.30;;;26.33;;
35644;SDS011;21764;52.042;6.830;2024-03-08T11:14:42;45.40;;;27.73;;
35644;SDS011;21764;52.042;6.830;2024-03-08T11:19:47;44.22;;;24.50;;
35644;SDS011;21764;52.042;6.830;2024-03-08T11:24:48;33.03;;;18.08;;
35644;SDS011;21764;52.042;6.830;2024-03-08T11:29:59;46.47;;;23.20;;
35644;SDS011;21764;52.042;6.830;2024-03-08T11:35:00;37.50;;;16.92;;
35644;SDS011;21764;52.042;6.830;2024-03-08T11:40:11;44.67;;;21.75;;
35644;SDS011;21764;52.042;6.830;2024-03-08T11:45:15;34.67;;;19.23;;
35644;SDS011;21764;52.042;6.830;2024-03-08T11:50:17;44.75;;;25.52;;
35644;SDS011;21764;52.042;6.830;2024-03-08T11:55:21;40.10;;;15.75;;
35644;SDS011;21764;52.042;6.830;2024-03-08T12:00:22;41.92;;;24.70;;
35644;SDS011;21764;52.042;6.830;2024-03-08T12:05:26;26.73;;;12.33;;
35644;SDS011;21764;52.042;6.830;2024-03-08T12:10:27;33.63;;;17.90;;
35644;SDS011;21764;52.042;6.830;2024-03-08T12:15:29;33.15;;;15.32;;
35644;SDS011;21764;52.042;6.830;2024-03-08T12:20:32;28.08;;;14.70;;
35644;SDS011;21764;52.042;6.830;2024-03-08T12:25:33;40.70;;;22.25;;
35644;SDS011;21764;52.042;6.830;2024-03-08T12:30:48;30.90;;;15.43;;
35644;SDS011;21764;52.042;6.830;2024-03-08T12:35:51;24.35;;;13.60;;
35644;SDS011;21764;52.042;6.830;2024-03-08T12:40:55;30.30;;;15.60;;
35644;SDS011;21764;52.042;6.830;2024-03-08T12:45:57;31.08;;;15.98;;
35644;SDS011;21764;52.042;6.830;2024-03-08T12:50:58;28.10;;;14.13;;
35644;SDS011;21764;52.042;6.830;2024-03-08T12:56:01;33.33;;;16.27;;
35644;SDS011;21764;52.042;6.830;2024-03-08T13:01:03;19.00;;;10.35;;
35644;SDS011;21764;52.042;6.830;2024-03-08T13:06:07;31.08;;;17.17;;
35644;SDS011;21764;52.042;6.830;2024-03-08T13:11:08;32.20;;;14.98;;
35644;SDS011;21764;52.042;6.830;2024-03-08T13:16:12;27.85;;;14.35;;
35644;SDS011;21764;52.042;6.830;2024-03-08T13:21:17;31.00;;;13.25;;
35644;SDS011;21764;52.042;6.830;2024-03-08T13:26:20;27.33;;;12.90;;
35644;SDS011;21764;52.042;6.830;2024-03-08T13:31:21;27.88;;;14.20;;
35644;SDS011;21764;52.042;6.830;2024-03-08T13:36:22;29.45;;;13.70;;
35644;SDS011;21764;52.042;6.830;2024-03-08T13:41:24;29.15;;;16.05;;
35644;SDS011;21764;52.042;6.830;2024-03-08T13:46:25;29.35;;;15.75;;
35644;SDS011;21764;52.042;6.830;2024-03-08T13:51:27;29.42;;;15.05;;
35644;SDS011;21764;52.042;6.830;2024-03-08T13:56:28;32.70;;;17.05;;
35644;SDS011;21764;52.042;6.830;2024-03-08T14:01:32;26.20;;;11.70;;
35644;SDS011;21764;52.042;6.830;2024-03-08T14:06:35;28.23;;;15.35;;
35644;SDS011;21764;52.042;6.830;2024-03-08T14:11:36;30.17;;;18.45;;
35644;SDS011;21764;52.042;6.830;2024-03-08T14:16:41;33.50;;;16.70;;
35644;SDS011;21764;52.042;6.830;2024-03-08T14:21:43;23.52;;;12.63;;
35644;SDS011;21764;52.042;6.830;2024-03-08T14:26:44;33.10;;;14.85;;
35644;SDS011;21764;52.042;6.830;2024-03-08T14:31:48;32.97;;;17.83;;
35644;SDS011;21764;52.042;6.830;2024-03-08T14:36:49;28.35;;;13.55;;
35644;SDS011;21764;52.042;6.830;2024-03-08T14:41:50;35.90;;;19.45;;
35644;SDS011;21764;52.042;6.830;2024-03-08T14:46:53;43.53;;;22.25;;
35644;SDS011;21764;52.042;6.830;2024-03-08T14:51:55;37.97;;;22.65;;
35644;SDS011;21764;52.042;6.830;2024-03-08T14:56:58;28.88;;;13.88;;
35644;SDS011;21764;52.042;6.830;2024-03-08T15:01:59;30.83;;;17.65;;
35644;SDS011;21764;52.042;6.830;2024-03-08T15:07:02;40.08;;;20.83;;
35644;SDS011;21764;52.042;6.830;2024-03-08T15:12:08;38.08;;;20.67;;
35644;SDS011;21764;52.042;6.830;2024-03-08T15:22:20;22.10;;;10.18;;
35644;SDS011;21764;52.042;6.830;2024-03-08T15:27:23;39.95;;;22.73;;
35644;SDS011;21764;52.042;6.830;2024-03-08T15:32:24;30.42;;;16.75;;
35644;SDS011;21764;52.042;6.830;2024-03-08T15:37:27;40.35;;;24.02;;
35644;SDS011;21764;52.042;6.830;2024-03-08T15:42:29;30.63;;;16.17;;
35644;SDS011;21764;52.042;6.830;2024-03-08T15:47:30;40.88;;;23.40;;
35644;SDS011;21764;52.042;6.830;2024-03-08T15:52:33;28.98;;;16.60;;
35644;SDS011;21764;52.042;6.830;2024-03-08T15:57:34;36.60;;;17.80;;
35644;SDS011;21764;52.042;6.830;2024-03-08T16:02:35;31.23;;;16.48;;
35644;SDS011;21764;52.042;6.830;2024-03-08T16:07:39;27.80;;;15.47;;
35644;SDS011;21764;52.042;6.830;2024-03-08T16:12:40;46.90;;;24.23;;
35644;SDS011;21764;52.042;6.830;2024-03-08T16:17:43;46.28;;;24.73;;
35644;SDS011;21764;52.042;6.830;2024-03-08T16:22:44;34.55;;;16.90;;
35644;SDS011;21764;52.042;6.830;2024-03-08T16:27:45;38.53;;;19.10;;
35644;SDS011;21764;52.042;6.830;2024-03-08T16:32:50;33.63;;;18.70;;
35644;SDS011;21764;52.042;6.830;2024-03-08T16:37:54;36.87;;;20.33;;
35644;SDS011;21764;52.042;6.830;2024-03-08T16:42:55;33.20;;;19.10;;
35644;SDS011;21764;52.042;6.830;2024-03-08T16:47:56;43.95;;;22.50;;
35644;SDS011;21764;52.042;6.830;2024-03-08T16:52:57;44.10;;;23.63;;
35644;SDS011;21764;52.042;6.830;2024-03-08T16:57:58;39.70;;;22.05;;
35644;SDS011;21764;52.042;6.830;2024-03-08T17:03:00;37.75;;;20.85;;
35644;SDS011;21764;52.042;6.830;2024-03-08T17:08:04;45.47;;;23.30;;
35644;SDS011;21764;52.042;6.830;2024-03-08T17:13:06;44.97;;;23.10;;
35644;SDS011;21764;52.042;6.830;2024-03-08T17:18:08;50.05;;;26.27;;
35644;SDS011;21764;52.042;6.830;2024-03-08T17:23:09;45.58;;;24.90;;
35644;SDS011;21764;52.042;6.830;2024-03-08T17:28:13;50.00;;;25.37;;
35644;SDS011;21764;52.042;6.830;2024-03-08T17:33:15;54.15;;;28.38;;
35644;SDS011;21764;52.042;6.830;2024-03-08T17:38:21;50.50;;;24.63;;
35644;SDS011;21764;52.042;6.830;2024-03-08T17:43:24;38.75;;;21.60;;
35644;SDS011;21764;52.042;6.830;2024-03-08T17:48:27;46.70;;;26.13;;
35644;SDS011;21764;52.042;6.830;2024-03-08T17:53:29;47.55;;;18.95;;
35644;SDS011;21764;52.042;6.830;2024-03-08T17:58:31;45.00;;;22.10;;
35644;SDS011;21764;52.042;6.830;2024-03-08T18:03:32;53.22;;;26.30;;
35644;SDS011;21764;52.042;6.830;2024-03-08T18:08:34;32.63;;;15.85;;
35644;SDS011;21764;52.042;6.830;2024-03-08T18:13:37;55.22;;;29.40;;
35644;SDS011;21764;52.042;6.830;2024-03-08T18:18:38;43.63;;;18.40;;
35644;SDS011;21764;52.042;6.830;2024-03-08T18:23:39;54.30;;;24.65;;
35644;SDS011;21764;52.042;6.830;2024-03-08T18:28:40;50.60;;;24.40;;
35644;SDS011;21764;52.042;6.830;2024-03-08T18:33:41;54.67;;;28.88;;
35644;SDS011;21764;52.042;6.830;2024-03-08T18:38:44;59.92;;;29.02;;
35644;SDS011;21764;52.042;6.830;2024-03-08T18:43:45;55.83;;;29.67;;
35644;SDS011;21764;52.042;6.830;2024-03-08T18:48:46;55.97;;;29.48;;
35644;SDS011;21764;52.042;6.830;2024-03-08T18:53:48;34.45;;;16.95;;
35644;SDS011;21764;52.042;6.830;2024-03-08T18:58:52;56.17;;;28.07;;
35644;SDS011;21764;52.042;6.830;2024-03-08T19:03:53;38.28;;;17.67;;
35644;SDS011;21764;52.042;6.830;2024-03-08T19:08:55;53.78;;;27.38;;
35644;SDS011;21764;52.042;6.830;2024-03-08T19:13:58;61.25;;;27.73;;
35644;SDS011;21764;52.042;6.830;2024-03-08T19:18:59;52.30;;;25.95;;
35644;SDS011;21764;52.042;6.830;2024-03-08T19:24:00;55.38;;;27.90;;
35644;SDS011;21764;52.042;6.830;2024-03-08T19:29:01;50.35;;;24.35;;
35644;SDS011;21764;52.042;6.830;2024-03-08T19:34:05;48.85;;;20.63;;
35644;SDS011;21764;52.042;6.830;2024-03-08T19:39:10;41.92;;;17.42;;
35644;SDS011;21764;52.042;6.830;2024-03-08T19:44:11;59.42;;;28.30;;
35644;SDS011;21764;52.042;6.830;2024-03-08T19:49:14;59.25;;;29.50;;
35644;SDS011;21764;52.042;6.830;2024-03-08T19:54:16;56.15;;;28.08;;
35644;SDS011;21764;52.042;6.830;2024-03-08T19:59:18;47.90;;;23.55;;
35644;SDS011;21764;52.042;6.830;2024-03-08T20:04:19;70.20;;;33.83;;
35644;SDS011;21764;52.042;6.830;2024-03-08T20:09:20;63.67;;;29.20;;
35644;SDS011;21764;52.042;6.830;2024-03-08T20:14:24;51.13;;;24.00;;
35644;SDS011;21764;52.042;6.830;2024-03-08T20:19:28;66.32;;;33.58;;
35644;SDS011;21764;52.042;6.830;2024-03-08T20:24:29;58.25;;;26.83;;
35644;SDS011;21764;52.042;6.830;2024-03-08T20:29:30;59.67;;;27.13;;
35644;SDS011;21764;52.042;6.830;2024-03-08T20:34:31;41.92;;;18.88;;
35644;SDS011;21764;52.042;6.830;2024-03-08T20:39:33;70.72;;;32.67;;
35644;SDS011;21764;52.042;6.830;2024-03-08T20:44:34;58.50;;;27.55;;
35644;SDS011;21764;52.042;6.830;2024-03-08T20:49:36;65.57;;;31.52;;
35644;SDS011;21764;52.042;6.830;2024-03-08T20:54:37;64.97;;;32.95;;
35644;SDS011;21764;52.042;6.830;2024-03-08T20:59:38;53.38;;;24.90;;
35644;SDS011;21764;52.042;6.830;2024-03-08T21:04:39;65.68;;;31.65;;
35644;SDS011;21764;52.042;6.830;2024-03-08T21:09:42;74.97;;;37.10;;
35644;SDS011;21764;52.042;6.830;2024-03-08T21:14:43;67.55;;;30.65;;
35644;SDS011;21764;52.042;6.830;2024-03-08T21:19:44;65.38;;;30.52;;
35644;SDS011;21764;52.042;6.830;2024-03-08T21:24:46;66.70;;;30.88;;
35644;SDS011;21764;52.042;6.830;2024-03-08T21:29:47;48.08;;;22.42;;
35644;SDS011;21764;52.042;6.830;2024-03-08T21:34:48;72.78;;;35.10;;
35644;SDS011;21764;52.042;6.830;2024-03-08T21:39:49;73.50;;;32.20;;
35644;SDS011;21764;52.042;6.830;2024-03-08T21:44:52;72.47;;;38.08;;
35644;SDS011;21764;52.042;6.830;2024-03-08T21:49:55;60.97;;;31.15;;
35644;SDS011;21764;52.042;6.830;2024-03-08T21:54:57;83.10;;;35.58;;
35644;SDS011;21764;52.042;6.830;2024-03-08T21:59:58;73.57;;;32.60;;
35644;SDS011;21764;52.042;6.830;2024-03-08T22:05:00;74.20;;;36.75;;
35644;SDS011;21764;52.042;6.830;2024-03-08T22:10:02;72.93;;;34.25;;
35644;SDS011;21764;52.042;6.830;2024-03-08T22:15:06;65.35;;;31.50;;
35644;SDS011;21764;52.042;6.830;2024-03-08T22:20:10;69.65;;;31.33;;
35644;SDS011;21764;52.042;6.830;2024-03-08T22:25:19;57.83;;;24.73;;
35644;SDS011;21764;52.042;6.830;2024-03-08T22:30:22;64.78;;;27.13;;
35644;SDS011;21764;52.042;6.830;2024-03-08T22:35:24;76.70;;;36.83;;
35644;SDS011;21764;52.042;6.830;2024-03-08T22:40:25;72.93;;;35.58;;
35644;SDS011;21764;52.042;6.830;2024-03-08T22:45:27;76.10;;;38.58;;
35644;SDS011;21764;52.042;6.830;2024-03-08T22:50:29;58.90;;;25.35;;
35644;SDS011;21764;52.042;6.830;2024-03-08T22:55:30;76.20;;;35.50;;
35644;SDS011;21764;52.042;6.830;2024-03-08T23:00:31;80.90;;;39.30;;
35644;SDS011;21764;52.042;6.830;2024-03-08T23:05:38;76.50;;;35.40;;
35644;SDS011;21764;52.042;6.830;2024-03-08T23:10:41;59.70;;;25.85;;
35644;SDS011;21764;52.042;6.830;2024-03-08T23:15:42;65.53;;;28.38;;
35644;SDS011;21764;52.042;6.830;2024-03-08T23:20:43;75.90;;;36.75;;
35644;SDS011;21764;52.042;6.830;2024-03-08T23:25:44;53.40;;;24.42;;
35644;SDS011;21764;52.042;6.830;2024-03-08T23:30:45;63.67;;;28.80;;
35644;SDS011;21764;52.042;6.830;2024-03-08T23:35:46;74.95;;;36.65;;
35644;SDS011;21764;52.042;6.830;2024-03-08T23:41:03;75.78;;;36.83;;
35644;SDS011;21764;52.042;6.830;2024-03-08T23:46:10;71.00;;;31.50;;
35644;SDS011;21764;52.042;6.830;2024-03-08T23:51:11;66.05;;;29.98;;
35644;SDS011;21764;52.042;6.830;2024-03-08T23:56:13;78.43;;;34.85;;
